Time;durP1;ratioP1;P1;durP2;ratioP2;P2;SDS_P1;SDS_P2;PMS_P1;PMS_P2;Temp;Humidity;BMP_temperature;BMP_pressure;BME280_temperature;BME280_humidity;BME280_pressure;Samples;Min_cycle;Max_cycle;Signal;HPM_P1;HPM_P2
2024/01/28 00:00:25;;;;;;;7.55;4.55;;;11.10;60.70;;;;;;6233476;28;20396;-72
2024/01/28 00:03:25;;;;;;;7.03;3.55;;;11.10;60.70;;;;;;6253035;28;20088;-72
2024/01/28 00:06:26;;;;;;;8.00;4.38;;;11.10;60.80;;;;;;6247052;28;20480;-70
2024/01/28 00:09:27;;;;;;;8.00;4.28;;;11.10;60.80;;;;;;6249134;28;20033;-71
2024/01/28 00:12:28;;;;;;;7.65;4.18;;;11.00;60.80;;;;;;6258207;28;20024;-72
2024/01/28 00:15:29;;;;;;;9.13;4.20;;;11.00;60.90;;;;;;6266198;28;20017;-72
2024/01/28 00:18:30;;;;;;;10.85;4.07;;;11.00;61.00;;;;;;6253338;28;20047;-72
2024/01/28 00:21:30;;;;;;;11.23;4.18;;;11.00;61.00;;;;;;6251680;28;20434;-72
2024/01/28 00:24:31;;;;;;;6.75;3.92;;;10.90;61.00;;;;;;6250186;28;20078;-71
2024/01/28 00:27:32;;;;;;;12.63;4.40;;;11.00;61.10;;;;;;6217215;28;20041;-73
2024/01/28 00:30:33;;;;;;;9.82;4.57;;;10.90;61.10;;;;;;6253938;28;20017;-72
2024/01/28 00:33:35;;;;;;;9.30;4.55;;;10.90;61.10;;;;;;6281800;28;20485;-70
2024/01/28 00:36:36;;;;;;;10.45;4.50;;;11.00;61.10;;;;;;6255115;28;20112;-72
2024/01/28 00:39:37;;;;;;;7.93;4.03;;;10.90;61.00;;;;;;6251781;28;20441;-73
2024/01/28 00:42:38;;;;;;;8.23;4.57;;;10.90;61.00;;;;;;6246575;28;20018;-70
2024/01/28 00:45:39;;;;;;;11.00;4.68;;;10.90;61.10;;;;;;6253739;28;20036;-72
2024/01/28 00:48:40;;;;;;;8.48;4.43;;;10.90;61.20;;;;;;6246417;28;20116;-71
2024/01/28 00:51:41;;;;;;;7.85;4.45;;;10.80;61.30;;;;;;6250902;28;20020;-71
2024/01/28 00:54:43;;;;;;;8.63;4.50;;;10.80;61.40;;;;;;6251953;28;20063;-72
2024/01/28 00:57:44;;;;;;;10.88;5.63;;;10.70;61.40;;;;;;6249420;28;20024;-71
2024/01/28 01:00:44;;;;;;;8.18;4.82;;;10.70;61.60;;;;;;6250500;28;20040;-73
2024/01/28 01:03:45;;;;;;;8.95;4.10;;;10.70;61.60;;;;;;6266042;28;20136;-72
2024/01/28 01:06:46;;;;;;;8.27;3.78;;;10.60;61.70;;;;;;6264906;28;20587;-71
2024/01/28 01:09:47;;;;;;;11.65;4.80;;;10.60;61.80;;;;;;6252230;28;20029;-71
2024/01/28 01:12:48;;;;;;;10.65;4.78;;;10.60;61.90;;;;;;6250858;28;20237;-71
2024/01/28 01:15:49;;;;;;;8.95;4.47;;;10.50;62.00;;;;;;6250126;28;20446;-71
2024/01/28 01:18:51;;;;;;;7.90;4.72;;;10.60;62.00;;;;;;6235126;28;20025;-72
2024/01/28 01:21:53;;;;;;;11.93;4.78;;;10.60;61.90;;;;;;6251777;28;20025;-72
2024/01/28 01:24:53;;;;;;;9.98;4.10;;;10.50;61.80;;;;;;6229435;28;20020;-72
2024/01/28 01:27:55;;;;;;;10.32;4.88;;;10.50;61.80;;;;;;6246845;28;20055;-70
2024/01/28 01:30:56;;;;;;;6.55;3.83;;;10.50;61.80;;;;;;6248690;28;20069;-72
2024/01/28 01:33:57;;;;;;;11.60;4.50;;;10.50;61.80;;;;;;6249549;28;20024;-72
2024/01/28 01:36:58;;;;;;;10.85;4.65;;;10.40;61.80;;;;;;6254303;28;20123;-71
2024/01/28 01:40:00;;;;;;;10.13;4.55;;;10.40;61.80;;;;;;6246165;28;20043;-72
2024/01/28 01:43:09;;;;;;;10.82;5.05;;;10.40;62.00;;;;;;6235014;28;20036;-72
2024/01/28 01:46:11;;;;;;;10.20;5.07;;;10.30;61.90;;;;;;6250190;28;20155;-72
2024/01/28 01:49:13;;;;;;;7.95;4.10;;;10.30;62.10;;;;;;6248934;28;20361;-71
2024/01/28 01:52:16;;;;;;;7.75;4.40;;;10.20;62.40;;;;;;6255266;28;20024;-70
2024/01/28 01:55:17;;;;;;;8.85;4.90;;;10.10;62.60;;;;;;6249418;28;20027;-71
2024/01/28 01:58:18;;;;;;;9.40;4.78;;;10.10;62.90;;;;;;6253937;28;20024;-72
2024/01/28 02:01:19;;;;;;;7.82;4.40;;;10.10;63.10;;;;;;6247712;28;20134;-72
2024/01/28 02:04:23;;;;;;;9.63;4.50;;;10.10;63.20;;;;;;6252439;28;20024;-72
2024/01/28 02:07:26;;;;;;;7.68;3.47;;;10.00;63.30;;;;;;6256482;28;20086;-72
2024/01/28 02:10:27;;;;;;;6.63;3.55;;;10.00;63.30;;;;;;6247502;28;20124;-72
2024/01/28 02:13:28;;;;;;;7.63;4.22;;;10.00;63.40;;;;;;6267444;28;20061;-71
2024/01/28 02:16:31;;;;;;;6.10;4.13;;;10.00;63.50;;;;;;6245651;28;20120;-71
2024/01/28 02:19:32;;;;;;;9.48;3.40;;;9.90;63.50;;;;;;6252968;28;20500;-75
2024/01/28 02:22:33;;;;;;;10.48;4.82;;;10.00;63.60;;;;;;6281844;28;20096;-71
2024/01/28 02:25:34;;;;;;;5.63;3.58;;;10.00;63.60;;;;;;6230335;28;20122;-71
2024/01/28 02:28:35;;;;;;;8.63;3.90;;;10.00;63.50;;;;;;6248938;28;20384;-69
2024/01/28 02:31:36;;;;;;;10.25;4.40;;;10.00;63.50;;;;;;6248987;28;20748;-70
2024/01/28 02:34:37;;;;;;;10.27;3.95;;;10.00;63.30;;;;;;6276778;28;20040;-72
2024/01/28 02:37:38;;;;;;;9.52;4.22;;;10.00;63.30;;;;;;6251395;28;20088;-71
2024/01/28 02:40:39;;;;;;;13.20;4.32;;;10.00;63.10;;;;;;6249156;28;20331;-72
2024/01/28 02:43:40;;;;;;;6.13;3.28;;;10.00;63.10;;;;;;6251320;28;20079;-70
2024/01/28 02:46:41;;;;;;;8.25;4.25;;;10.00;63.10;;;;;;6252252;28;20017;-72
2024/01/28 02:49:42;;;;;;;6.45;4.30;;;10.00;63.20;;;;;;6249549;28;20637;-70
2024/01/28 02:52:43;;;;;;;11.38;5.15;;;9.90;63.10;;;;;;6262532;28;20067;-72
2024/01/28 02:55:44;;;;;;;8.48;3.97;;;9.90;63.30;;;;;;6249293;28;20048;-71
2024/01/28 02:58:45;;;;;;;8.05;4.20;;;9.90;63.30;;;;;;6250800;28;20461;-73
2024/01/28 03:01:47;;;;;;;6.03;3.53;;;9.80;63.40;;;;;;6246423;28;20397;-72
2024/01/28 03:04:48;;;;;;;7.07;4.38;;;9.70;63.60;;;;;;6265451;28;20031;-71
2024/01/28 03:07:49;;;;;;;6.70;3.47;;;9.80;63.60;;;;;;6245428;28;20037;-72
2024/01/28 03:10:51;;;;;;;8.05;4.22;;;9.80;63.70;;;;;;6241562;28;20091;-71
2024/01/28 03:13:52;;;;;;;8.65;4.50;;;9.80;63.70;;;;;;6247054;28;20029;-71
2024/01/28 03:16:53;;;;;;;8.98;4.30;;;9.80;63.70;;;;;;6248223;28;20093;-71
2024/01/28 03:19:54;;;;;;;10.65;5.13;;;9.80;63.80;;;;;;6246740;28;20147;-72
2024/01/28 03:22:55;;;;;;;7.90;4.65;;;9.70;64.00;;;;;;6248020;28;20033;-72
2024/01/28 03:25:55;;;;;;;11.15;4.43;;;9.70;64.10;;;;;;6247862;28;20688;-72
2024/01/28 03:28:56;;;;;;;8.40;3.92;;;9.70;64.20;;;;;;6233153;28;20045;-72
2024/01/28 03:31:57;;;;;;;7.72;3.60;;;9.70;64.30;;;;;;6242074;28;20021;-71
2024/01/28 03:34:58;;;;;;;11.93;4.43;;;9.60;64.30;;;;;;6246065;28;20033;-72
2024/01/28 03:37:59;;;;;;;7.88;4.65;;;9.60;64.30;;;;;;6228949;28;20040;-72
2024/01/28 03:41:00;;;;;;;8.23;4.50;;;9.60;64.40;;;;;;6246958;28;20020;-72
2024/01/28 03:44:02;;;;;;;9.90;5.10;;;9.60;64.50;;;;;;6248049;28;20025;-70
2024/01/28 03:47:03;;;;;;;8.32;4.25;;;9.60;64.50;;;;;;6246399;28;20434;-72
2024/01/28 03:50:05;;;;;;;7.82;3.63;;;9.60;64.40;;;;;;6233141;28;20422;-71
2024/01/28 03:53:06;;;;;;;10.15;3.97;;;9.50;64.40;;;;;;6258823;28;20311;-69
2024/01/28 03:56:06;;;;;;;13.65;4.50;;;9.50;64.30;;;;;;6245844;28;20182;-70
2024/01/28 03:59:07;;;;;;;9.18;3.97;;;9.50;64.40;;;;;;6259019;28;20472;-71
2024/01/28 04:02:08;;;;;;;9.73;5.30;;;9.40;64.50;;;;;;6243503;28;20421;-70
2024/01/28 04:05:09;;;;;;;10.68;4.80;;;9.30;64.60;;;;;;6246804;28;20031;-71
2024/01/28 04:08:10;;;;;;;8.18;4.35;;;9.30;64.80;;;;;;6243004;28;20203;-72
2024/01/28 04:11:11;;;;;;;8.25;3.92;;;9.20;65.00;;;;;;6242546;28;20036;-72
2024/01/28 04:14:12;;;;;;;7.35;3.85;;;9.20;65.20;;;;;;6247329;28;20017;-72
2024/01/28 04:17:12;;;;;;;22.63;4.30;;;9.10;65.30;;;;;;6241363;28;20132;-70
2024/01/28 04:20:13;;;;;;;7.97;3.92;;;9.10;65.50;;;;;;6248881;28;20787;-70
2024/01/28 04:23:15;;;;;;;12.20;5.50;;;9.00;65.60;;;;;;6233208;28;20025;-72
2024/01/28 04:26:16;;;;;;;7.00;3.67;;;9.00;65.80;;;;;;6246716;28;20128;-71
2024/01/28 04:29:18;;;;;;;11.18;4.70;;;8.90;66.00;;;;;;6246976;28;20091;-71
2024/01/28 04:32:20;;;;;;;6.82;3.75;;;8.90;66.20;;;;;;6227143;28;20430;-71
2024/01/28 04:35:22;;;;;;;8.35;4.90;;;8.90;66.30;;;;;;6229972;28;20024;-72
2024/01/28 04:38:24;;;;;;;6.85;4.65;;;8.90;66.40;;;;;;6235417;28;20063;-71
2024/01/28 04:41:25;;;;;;;10.65;5.07;;;8.90;66.30;;;;;;6230486;28;20064;-72
2024/01/28 04:44:27;;;;;;;9.23;4.32;;;8.90;66.10;;;;;;6230200;28;20699;-69
2024/01/28 04:47:29;;;;;;;16.77;4.68;;;8.90;66.00;;;;;;6244263;28;20040;-71
2024/01/28 04:50:30;;;;;;;7.10;3.47;;;8.80;66.10;;;;;;6248811;28;20093;-69
2024/01/28 04:53:31;;;;;;;6.22;4.13;;;8.80;66.20;;;;;;6265481;28;20672;-72
2024/01/28 04:56:32;;;;;;;12.45;5.07;;;8.80;66.30;;;;;;6253810;28;20021;-71
2024/01/28 04:59:34;;;;;;;12.40;4.65;;;8.80;66.20;;;;;;6249474;28;20025;-71
2024/01/28 05:02:35;;;;;;;9.73;4.75;;;8.80;66.20;;;;;;6249590;28;20076;-71
2024/01/28 05:05:36;;;;;;;9.45;4.15;;;8.80;66.20;;;;;;6237384;28;20029;-70
2024/01/28 05:08:37;;;;;;;8.98;4.45;;;8.70;66.10;;;;;;6237995;28;20414;-71
2024/01/28 05:11:38;;;;;;;8.85;4.35;;;8.70;66.10;;;;;;6249136;28;20051;-72
2024/01/28 05:14:41;;;;;;;7.63;3.88;;;8.60;66.10;;;;;;6250104;28;20473;-72
2024/01/28 05:17:42;;;;;;;6.75;3.90;;;8.60;66.40;;;;;;6249850;28;20048;-71
2024/01/28 05:20:43;;;;;;;8.10;4.72;;;8.50;66.50;;;;;;6251260;28;20055;-71
2024/01/28 05:23:45;;;;;;;8.00;3.85;;;8.40;66.70;;;;;;6254498;28;20474;-70
2024/01/28 05:26:46;;;;;;;6.95;4.70;;;8.40;67.00;;;;;;6251508;28;20041;-71
2024/01/28 05:29:48;;;;;;;10.45;4.53;;;8.30;67.20;;;;;;6248851;28;20703;-71
2024/01/28 05:32:50;;;;;;;8.25;4.25;;;8.30;67.30;;;;;;6249810;28;20017;-72
2024/01/28 05:35:50;;;;;;;9.70;3.75;;;8.20;67.60;;;;;;6248625;28;20026;-71
2024/01/28 05:38:51;;;;;;;8.77;5.00;;;8.20;67.80;;;;;;6264685;28;20121;-71
2024/01/28 05:41:52;;;;;;;9.82;4.55;;;8.20;67.90;;;;;;6249721;28;20017;-72
2024/01/28 05:44:53;;;;;;;7.75;4.05;;;8.20;68.10;;;;;;6246899;28;20029;-72
2024/01/28 05:47:56;;;;;;;10.65;3.97;;;8.10;68.00;;;;;;6252460;28;20029;-72
2024/01/28 05:50:59;;;;;;;12.35;4.22;;;8.10;67.90;;;;;;6233625;28;20029;-71
2024/01/28 05:53:59;;;;;;;10.90;4.15;;;8.10;67.90;;;;;;6250036;28;20429;-72
2024/01/28 05:57:00;;;;;;;14.25;5.57;;;8.10;68.00;;;;;;6250050;28;20072;-71
2024/01/28 06:00:01;;;;;;;12.18;3.70;;;8.10;68.10;;;;;;6249699;28;20440;-71
2024/01/28 06:03:03;;;;;;;10.20;5.22;;;8.10;68.20;;;;;;6246378;28;20124;-71
2024/01/28 06:06:04;;;;;;;10.57;4.57;;;8.10;68.30;;;;;;6246270;28;21479;-70
2024/01/28 06:09:06;;;;;;;12.88;4.65;;;8.10;68.30;;;;;;6271138;28;20041;-70
2024/01/28 06:12:07;;;;;;;9.80;4.38;;;8.20;68.30;;;;;;6235677;28;20473;-68
2024/01/28 06:15:08;;;;;;;9.65;4.93;;;8.20;68.10;;;;;;6251654;28;20070;-71
2024/01/28 06:18:09;;;;;;;6.35;3.40;;;8.30;68.00;;;;;;6250306;28;20599;-72
2024/01/28 06:21:10;;;;;;;9.50;3.75;;;8.30;67.80;;;;;;6251136;28;20087;-71
2024/01/28 06:24:11;;;;;;;6.75;3.80;;;8.40;67.50;;;;;;6249412;28;20018;-72
2024/01/28 06:27:12;;;;;;;9.43;4.30;;;8.40;67.10;;;;;;6246943;28;20060;-71
2024/01/28 06:30:14;;;;;;;11.85;3.97;;;8.30;67.00;;;;;;6232335;28;20440;-71
2024/01/28 06:33:17;;;;;;;11.20;4.97;;;8.30;67.10;;;;;;6249634;28;20040;-71
2024/01/28 06:36:21;;;;;;;8.65;4.18;;;8.20;67.20;;;;;;6245862;28;20502;-71
2024/01/28 06:39:23;;;;;;;12.35;4.72;;;8.20;67.30;;;;;;6245676;28;20025;-71
2024/01/28 06:42:25;;;;;;;9.48;3.92;;;8.20;67.20;;;;;;6253986;28;20072;-71
2024/01/28 06:45:26;;;;;;;7.18;3.67;;;8.20;67.20;;;;;;6230352;28;20029;-70
2024/01/28 06:48:26;;;;;;;8.85;4.50;;;8.10;67.20;;;;;;6229054;28;20013;-70
2024/01/28 06:51:28;;;;;;;9.07;4.03;;;8.20;68.10;;;;;;6262832;28;20018;-72
2024/01/28 06:54:28;;;;;;;5.32;3.60;;;8.20;67.10;;;;;;6252802;28;20108;-72
2024/01/28 06:57:31;;;;;;;11.73;5.20;;;8.10;67.00;;;;;;6248543;28;20048;-70
2024/01/28 07:00:31;;;;;;;4.70;3.53;;;8.10;67.00;;;;;;6247342;28;20104;-70
2024/01/28 07:03:32;;;;;;;7.18;3.75;;;8.10;67.00;;;;;;6247629;28;20048;-72
2024/01/28 07:06:33;;;;;;;10.70;4.45;;;8.10;66.90;;;;;;6244564;28;20135;-73
2024/01/28 07:09:36;;;;;;;8.20;4.18;;;8.10;66.90;;;;;;6244737;28;20017;-70
2024/01/28 07:12:38;;;;;;;9.80;3.67;;;8.10;66.90;;;;;;6248549;28;20250;-71
2024/01/28 07:15:39;;;;;;;9.50;5.28;;;8.00;66.70;;;;;;6243852;28;20021;-71
2024/01/28 07:18:40;;;;;;;8.23;4.72;;;8.00;66.90;;;;;;6278628;28;20035;-70
2024/01/28 07:21:41;;;;;;;7.75;4.90;;;7.90;67.10;;;;;;6247728;28;20025;-72
2024/01/28 07:24:42;;;;;;;7.55;4.22;;;7.80;67.30;;;;;;6236692;28;20084;-71
2024/01/28 07:27:43;;;;;;;8.15;4.10;;;7.80;67.40;;;;;;6249703;28;20025;-71
2024/01/28 07:30:43;;;;;;;6.97;4.05;;;7.90;67.50;;;;;;6248283;28;20090;-70
2024/01/28 07:33:44;;;;;;;9.43;4.65;;;7.90;67.40;;;;;;6244335;28;21316;-70
2024/01/28 07:36:49;;;;;;;6.70;3.67;;;7.90;67.40;;;;;;6264698;28;20113;-71
2024/01/28 07:39:50;;;;;;;11.52;5.47;;;7.90;67.30;;;;;;6246785;28;20029;-70
2024/01/28 07:42:51;;;;;;;13.32;5.00;;;7.90;67.40;;;;;;6247313;28;20094;-71
2024/01/28 07:45:51;;;;;;;6.40;3.55;;;7.90;67.20;;;;;;6249226;28;20025;-71
2024/01/28 07:48:52;;;;;;;18.45;4.95;;;8.00;67.10;;;;;;6247875;28;20043;-69
2024/01/28 07:51:54;;;;;;;7.47;4.32;;;8.00;67.00;;;;;;6242728;28;20151;-70
2024/01/28 07:54:55;;;;;;;9.35;4.65;;;7.80;66.80;;;;;;6281644;28;20009;-72
2024/01/28 07:57:56;;;;;;;7.10;3.78;;;7.90;66.90;;;;;;6253813;28;20021;-70
2024/01/28 08:00:58;;;;;;;5.72;4.13;;;7.90;67.00;;;;;;6225423;28;20584;-71
2024/01/28 08:04:00;;;;;;;9.68;4.97;;;7.90;67.10;;;;;;6246276;28;20049;-69
2024/01/28 08:07:01;;;;;;;11.13;5.00;;;7.90;67.20;;;;;;6260398;28;20093;-70
2024/01/28 08:10:03;;;;;;;10.45;4.32;;;7.80;67.40;;;;;;6278037;28;20106;-70
2024/01/28 08:13:05;;;;;;;8.82;3.63;;;7.90;67.40;;;;;;6248967;28;20011;-70
2024/01/28 08:16:06;;;;;;;9.43;3.78;;;8.00;67.40;;;;;;6248548;28;20065;-70
2024/01/28 08:19:08;;;;;;;7.75;3.92;;;8.10;67.30;;;;;;6248493;28;20021;-70
2024/01/28 08:22:10;;;;;;;12.10;4.10;;;8.10;67.10;;;;;;6246235;28;20490;-69
2024/01/28 08:25:11;;;;;;;9.13;4.57;;;8.20;67.00;;;;;;6253000;28;20130;-70
2024/01/28 08:28:12;;;;;;;8.57;4.15;;;8.30;66.80;;;;;;6253226;28;20490;-70
2024/01/28 08:31:13;;;;;;;13.63;4.45;;;8.40;66.60;;;;;;6256163;28;20013;-71
2024/01/28 08:34:14;;;;;;;9.38;4.43;;;8.50;66.30;;;;;;6257069;28;20333;-71
2024/01/28 08:37:15;;;;;;;8.07;4.63;;;8.60;65.80;;;;;;6255881;28;20056;-71
2024/01/28 08:40:19;;;;;;;12.88;4.70;;;8.60;65.40;;;;;;6255018;28;20159;-70
2024/01/28 08:43:20;;;;;;;11.15;4.80;;;8.70;65.30;;;;;;6256818;28;20075;-70
2024/01/28 08:46:21;;;;;;;12.43;4.72;;;8.80;65.00;;;;;;6239987;28;20115;-70
2024/01/28 08:49:24;;;;;;;9.13;3.65;;;8.80;64.70;;;;;;6251125;28;20041;-70
2024/01/28 08:52:25;;;;;;;6.88;4.38;;;8.90;64.30;;;;;;6258945;28;20523;-70
2024/01/28 08:55:26;;;;;;;10.60;5.10;;;8.90;64.30;;;;;;6256346;28;20501;-70
2024/01/28 08:58:28;;;;;;;8.25;4.03;;;9.00;64.30;;;;;;6289420;28;20025;-69
2024/01/28 09:01:29;;;;;;;11.90;4.70;;;9.10;63.80;;;;;;6253690;28;20066;-70
2024/01/28 09:04:30;;;;;;;7.85;4.22;;;9.20;63.20;;;;;;6254557;28;20061;-71
2024/01/28 09:07:31;;;;;;;18.98;4.65;;;9.20;62.70;;;;;;6256850;28;20021;-70
2024/01/28 09:10:32;;;;;;;13.25;4.72;;;9.30;62.40;;;;;;6257599;28;20025;-71
2024/01/28 09:13:33;;;;;;;8.88;4.25;;;9.30;62.50;;;;;;6259417;28;20151;-71
2024/01/28 09:16:33;;;;;;;16.25;4.90;;;9.40;62.30;;;;;;6255040;28;20013;-71
2024/01/28 09:19:34;;;;;;;6.25;3.70;;;9.60;61.90;;;;;;6237730;28;20491;-72
2024/01/28 09:22:36;;;;;;;10.02;4.05;;;9.70;61.70;;;;;;6239391;28;20098;-71
2024/01/28 09:25:37;;;;;;;10.13;4.32;;;9.70;60.80;;;;;;6256233;28;20033;-69
2024/01/28 09:28:38;;;;;;;10.90;4.68;;;9.80;60.80;;;;;;6254074;28;20465;-70
2024/01/28 09:31:44;;;;;;;8.13;3.55;;;9.90;60.90;;;;;;6254879;28;20009;-71
2024/01/28 09:34:45;;;;;;;9.38;4.65;;;10.10;60.70;;;;;;6253006;28;20434;-73
2024/01/28 09:37:46;;;;;;;24.73;7.15;;;10.20;60.30;;;;;;6251406;28;20097;-72
2024/01/28 09:40:50;;;;;;;9.93;5.38;;;10.30;60.00;;;;;;6254536;28;20381;-72
2024/01/28 09:43:52;;;;;;;13.00;4.10;;;10.40;59.50;;;;;;6256171;28;20032;-71
2024/01/28 09:46:54;;;;;;;11.38;3.88;;;10.40;59.00;;;;;;6254718;28;20328;-72
2024/01/28 09:49:59;;;;;;;8.90;3.90;;;10.40;58.50;;;;;;6255590;28;20088;-72
2024/01/28 09:53:00;;;;;;;6.15;3.33;;;10.50;58.00;;;;;;6253370;28;20021;-72
2024/01/28 09:56:01;;;;;;;9.48;3.78;;;10.40;57.80;;;;;;6256025;28;20029;-71
2024/01/28 09:59:05;;;;;;;17.25;6.63;;;10.50;57.80;;;;;;6251803;28;20090;-73
2024/01/28 10:02:06;;;;;;;16.10;5.35;;;10.40;57.90;;;;;;6243094;28;20021;-74
2024/01/28 10:05:10;;;;;;;11.82;5.13;;;10.60;57.70;;;;;;6242445;28;20022;-73
2024/01/28 10:08:14;;;;;;;26.15;6.53;;;10.60;57.50;;;;;;6251445;28;20024;-71
2024/01/28 10:11:16;;;;;;;13.73;5.88;;;10.70;57.60;;;;;;6257591;28;20017;-72
2024/01/28 10:14:17;;;;;;;8.40;4.15;;;10.80;57.60;;;;;;6253867;28;20072;-72
2024/01/28 10:17:21;;;;;;;12.90;4.30;;;10.90;56.90;;;;;;6283516;28;20522;-73
2024/01/28 10:20:24;;;;;;;9.98;4.15;;;11.10;56.50;;;;;;6253123;28;20107;-72
2024/01/28 10:23:26;;;;;;;8.30;3.70;;;11.40;56.40;;;;;;6253446;28;20028;-72
2024/01/28 10:26:31;;;;;;;11.75;5.03;;;11.70;55.50;;;;;;6241905;28;20075;-77
2024/01/28 10:29:32;;;;;;;12.57;4.97;;;12.00;54.60;;;;;;6273771;28;20071;-73
2024/01/28 10:32:33;;;;;;;11.43;5.22;;;12.30;53.80;;;;;;6238616;28;20438;-70
2024/01/28 10:35:34;;;;;;;19.00;7.80;;;12.50;53.50;;;;;;6250753;28;20063;-71
2024/01/28 10:38:37;;;;;;;15.43;5.10;;;12.60;52.90;;;;;;6260001;28;20036;-71
2024/01/28 10:41:42;;;;;;;13.25;5.00;;;12.70;52.40;;;;;;6250595;28;20029;-70
2024/01/28 10:44:47;;;;;;;6.50;3.70;;;12.80;52.50;;;;;;6263290;28;20493;-71
2024/01/28 10:47:55;;;;;;;13.52;5.10;;;12.90;51.50;;;;;;6241998;28;20568;-74
2024/01/28 10:50:56;;;;;;;9.27;5.10;;;13.10;51.30;;;;;;6251577;28;20076;-70
2024/01/28 10:53:58;;;;;;;9.05;4.35;;;13.30;51.00;;;;;;6243059;28;20021;-71
2024/01/28 10:57:04;;;;;;;12.18;4.07;;;13.60;50.70;;;;;;6262947;28;20075;-73
2024/01/28 11:00:06;;;;;;;5.93;3.55;;;13.90;49.70;;;;;;6278295;28;20032;-69
2024/01/28 11:03:08;;;;;;;11.15;3.45;;;14.30;48.10;;;;;;6274855;28;20040;-70
2024/01/28 11:06:08;;;;;;;10.98;3.80;;;14.60;47.00;;;;;;6262082;28;20034;-71
2024/01/28 11:09:09;;;;;;;5.63;2.90;;;15.00;46.30;;;;;;6237577;28;20508;-70
2024/01/28 11:12:10;;;;;;;10.57;4.07;;;15.40;45.10;;;;;;6259716;28;20033;-70
2024/01/28 11:15:14;;;;;;;15.48;4.60;;;15.80;44.20;;;;;;6285450;28;20124;-72
2024/01/28 11:18:16;;;;;;;10.10;2.58;;;16.10;42.50;;;;;;6247847;28;20029;-70
2024/01/28 11:21:19;;;;;;;8.23;3.92;;;16.40;41.70;;;;;;6284049;28;20020;-71
2024/01/28 11:24:20;;;;;;;19.83;6.47;;;16.60;40.80;;;;;;6267635;28;20099;-72
2024/01/28 11:27:21;;;;;;;6.55;3.28;;;16.80;40.40;;;;;;6251240;28;20394;-70
2024/01/28 11:30:23;;;;;;;13.25;5.53;;;17.20;40.00;;;;;;6213938;28;20049;-71
2024/01/28 11:33:24;;;;;;;4.93;2.22;;;17.80;38.80;;;;;;6254651;28;20036;-71
2024/01/28 11:36:28;;;;;;;8.55;3.20;;;18.20;37.20;;;;;;6250906;28;20086;-72
2024/01/28 11:39:37;;;;;;;9.05;3.50;;;18.50;36.60;;;;;;6249253;28;20017;-71
2024/01/28 11:42:37;;;;;;;;;;;18.80;34.90;;;;;;6257570;28;20021;-67
2024/01/28 11:45:39;;;;;;;13.05;4.93;;;19.20;34.60;;;;;;6256059;28;19921;-67
2024/01/28 11:48:41;;;;;;;17.80;5.45;;;19.70;34.20;;;;;;6251364;28;20029;-73
2024/01/28 11:51:42;;;;;;;12.05;4.85;;;20.00;33.40;;;;;;6262170;28;20025;-70
2024/01/28 11:54:44;;;;;;;6.80;3.45;;;20.10;32.30;;;;;;6234736;28;20104;-71
2024/01/28 11:57:48;;;;;;;8.75;3.08;;;20.10;32.60;;;;;;6251418;28;20485;-70
2024/01/28 12:00:51;;;;;;;4.82;2.70;;;20.30;32.70;;;;;;6251636;28;20123;-70
2024/01/28 12:03:56;;;;;;;5.85;2.60;;;20.60;32.90;;;;;;6226563;28;20036;-70
2024/01/28 12:06:57;;;;;;;4.38;2.53;;;20.90;32.30;;;;;;6251620;28;20105;-70
2024/01/28 12:10:05;;;;;;;6.55;3.00;;;20.90;31.40;;;;;;6273479;28;20033;-69
2024/01/28 12:13:06;;;;;;;6.60;3.45;;;20.40;32.20;;;;;;6259964;28;20104;-70
2024/01/28 12:16:07;;;;;;;8.80;3.25;;;19.70;33.50;;;;;;6257832;28;20020;-72
2024/01/28 12:19:13;;;;;;;12.50;3.42;;;19.10;35.00;;;;;;6271854;28;20027;-69
2024/01/28 12:22:14;;;;;;;7.72;3.22;;;18.70;36.20;;;;;;6233847;28;20453;-70
2024/01/28 12:25:24;;;;;;;13.20;4.38;;;18.30;37.00;;;;;;6234114;28;20036;-71
2024/01/28 12:28:25;;;;;;;5.82;2.70;;;18.00;37.90;;;;;;6257905;28;20176;-70
2024/01/28 12:31:27;;;;;;;7.38;3.60;;;17.80;38.50;;;;;;6256941;28;20020;-69
2024/01/28 12:34:29;;;;;;;8.35;4.35;;;17.60;38.80;;;;;;6257350;28;20549;-72
2024/01/28 12:37:30;;;;;;;8.82;4.13;;;17.40;39.30;;;;;;6256449;28;20131;-69
2024/01/28 12:40:31;;;;;;;4.80;3.03;;;17.20;39.60;;;;;;6240614;28;20029;-70
2024/01/28 12:43:33;;;;;;;8.48;3.58;;;17.10;40.00;;;;;;6254696;28;20025;-69
2024/01/28 12:46:33;;;;;;;7.78;2.95;;;17.00;40.40;;;;;;6256040;28;20110;-71
2024/01/28 12:49:34;;;;;;;6.53;3.75;;;16.90;40.60;;;;;;6256580;28;20021;-69
2024/01/28 12:52:35;;;;;;;9.45;3.75;;;16.90;40.90;;;;;;6255994;28;20078;-68
2024/01/28 12:55:36;;;;;;;12.38;3.35;;;16.80;41.00;;;;;;6255866;28;20021;-70
2024/01/28 12:58:37;;;;;;;6.40;3.45;;;16.80;41.10;;;;;;6238021;28;20563;-69
2024/01/28 13:01:38;;;;;;;12.25;3.75;;;16.70;41.30;;;;;;6254856;28;20036;-69
2024/01/28 13:04:42;;;;;;;5.80;2.92;;;16.70;41.50;;;;;;6254477;28;20814;-70
2024/01/28 13:07:43;;;;;;;11.07;3.70;;;16.70;41.60;;;;;;6255166;28;20073;-69
2024/01/28 13:10:44;;;;;;;6.90;3.83;;;16.70;42.20;;;;;;6271151;28;20025;-70
2024/01/28 13:13:45;;;;;;;6.25;3.40;;;16.70;41.70;;;;;;6254361;28;20471;-72
2024/01/28 13:16:50;;;;;;;6.53;3.17;;;16.60;41.70;;;;;;6256039;28;20037;-71
2024/01/28 13:19:53;;;;;;;7.35;3.15;;;16.60;41.70;;;;;;6263837;28;20033;-70
2024/01/28 13:22:55;;;;;;;6.55;3.22;;;16.50;41.50;;;;;;6256745;28;20029;-70
2024/01/28 13:25:56;;;;;;;6.65;3.17;;;16.50;41.20;;;;;;6257243;28;20043;-70
2024/01/28 13:28:57;;;;;;;6.43;3.13;;;16.50;41.10;;;;;;6258233;28;20485;-69
2024/01/28 13:31:58;;;;;;;4.95;2.45;;;16.40;40.90;;;;;;6256214;28;20048;-70
2024/01/28 13:35:02;;;;;;;7.00;2.50;;;16.30;41.00;;;;;;6260389;28;20024;-70
2024/01/28 13:38:03;;;;;;;4.47;2.00;;;16.30;41.00;;;;;;6271832;28;20764;-69
2024/01/28 13:41:04;;;;;;;6.32;2.88;;;16.40;41.20;;;;;;6271080;28;20124;-70
2024/01/28 13:44:06;;;;;;;5.30;2.63;;;16.40;40.60;;;;;;6244941;28;20036;-69
2024/01/28 13:47:07;;;;;;;8.48;3.25;;;16.40;40.40;;;;;;6261980;28;20120;-69
2024/01/28 13:50:08;;;;;;;6.10;2.30;;;16.50;40.50;;;;;;6254129;28;20466;-69
2024/01/28 13:53:11;;;;;;;5.72;2.53;;;16.60;40.30;;;;;;6255593;28;20149;-71
2024/01/28 13:56:11;;;;;;;7.07;2.97;;;16.60;40.30;;;;;;6272411;28;20065;-72
2024/01/28 13:59:13;;;;;;;5.20;1.73;;;16.70;39.60;;;;;;6256395;28;20027;-70
2024/01/28 14:02:14;;;;;;;8.95;2.60;;;16.70;39.20;;;;;;6255080;28;20486;-70
2024/01/28 14:05:15;;;;;;;4.10;2.00;;;16.70;39.00;;;;;;6255806;28;20107;-69
2024/01/28 14:08:16;;;;;;;3.28;1.83;;;16.80;39.20;;;;;;6256007;28;20134;-69
2024/01/28 14:11:16;;;;;;;3.40;1.88;;;16.80;39.10;;;;;;6256070;28;20070;-70
2024/01/28 14:14:17;;;;;;;2.90;1.67;;;16.80;38.70;;;;;;6248955;28;20013;-71
2024/01/28 14:17:20;;;;;;;11.63;4.18;;;16.80;38.20;;;;;;6238805;28;20025;-70
2024/01/28 14:20:21;;;;;;;6.47;3.53;;;16.90;38.30;;;;;;6251677;28;20028;-69
2024/01/28 14:23:21;;;;;;;6.03;2.63;;;16.80;38.30;;;;;;6253164;28;20451;-71
2024/01/28 14:26:22;;;;;;;7.28;2.50;;;16.80;38.50;;;;;;6229825;28;20462;-70
2024/01/28 14:29:23;;;;;;;5.28;2.33;;;16.80;39.10;;;;;;6269323;28;20131;-70
2024/01/28 14:32:24;;;;;;;6.95;2.88;;;16.80;38.50;;;;;;6251724;28;20017;-70
2024/01/28 14:35:25;;;;;;;5.00;2.15;;;16.60;38.50;;;;;;6236936;28;20521;-72
2024/01/28 14:38:28;;;;;;;8.30;3.28;;;16.80;39.40;;;;;;6252207;28;20043;-71
2024/01/28 14:41:30;;;;;;;9.68;2.88;;;16.90;39.10;;;;;;6252447;28;20029;-70
2024/01/28 14:44:31;;;;;;;17.95;2.40;;;16.90;38.60;;;;;;6250840;28;20025;-69
2024/01/28 14:47:32;;;;;;;3.90;2.08;;;16.80;39.20;;;;;;6253423;28;20028;-71
2024/01/28 14:50:39;;;;;;;5.70;2.42;;;16.80;38.60;;;;;;6256316;28;20028;-72
2024/01/28 14:53:40;;;;;;;7.03;2.67;;;16.80;38.70;;;;;;6253930;28;20031;-71
2024/01/28 14:56:40;;;;;;;11.32;4.03;;;16.80;38.90;;;;;;6251687;28;20631;-70
2024/01/28 14:59:41;;;;;;;7.93;4.00;;;16.80;38.90;;;;;;6284625;28;20115;-70
2024/01/28 15:02:43;;;;;;;5.60;2.45;;;16.70;39.00;;;;;;6256233;28;20035;-72
2024/01/28 15:05:44;;;;;;;6.07;2.45;;;16.70;38.70;;;;;;6254489;28;20152;-71
2024/01/28 15:08:45;;;;;;;6.70;2.55;;;16.70;38.80;;;;;;6237576;28;20009;-71
2024/01/28 15:11:46;;;;;;;6.90;2.67;;;16.70;39.00;;;;;;6251469;28;20493;-72
2024/01/28 15:14:47;;;;;;;8.70;2.33;;;16.70;39.00;;;;;;6262629;28;20022;-69
2024/01/28 15:17:49;;;;;;;5.38;2.20;;;16.70;38.90;;;;;;6247096;28;20021;-71
2024/01/28 15:20:51;;;;;;;4.43;2.53;;;16.60;39.40;;;;;;6282320;28;20155;-70
2024/01/28 15:23:54;;;;;;;10.95;3.00;;;16.60;38.80;;;;;;6275002;28;20326;-69
2024/01/28 15:26:55;;;;;;;6.00;2.47;;;16.50;39.00;;;;;;6252412;28;20384;-72
2024/01/28 15:29:57;;;;;;;6.25;2.80;;;16.50;39.10;;;;;;6247316;28;20025;-71
2024/01/28 15:32:58;;;;;;;7.05;2.30;;;16.50;39.40;;;;;;6253715;28;20433;-71
2024/01/28 15:36:01;;;;;;;10.75;2.55;;;16.40;39.30;;;;;;6255271;28;20044;-71
2024/01/28 15:39:02;;;;;;;3.92;2.10;;;16.40;39.30;;;;;;6266874;28;20051;-72
2024/01/28 15:42:03;;;;;;;7.07;2.53;;;16.40;39.40;;;;;;6251716;28;20025;-70
2024/01/28 15:45:05;;;;;;;6.20;2.85;;;16.40;39.40;;;;;;6250789;28;20485;-70